createdAt,value
2023-03-20T00:00:46.517Z,3.22
2023-03-20T00:03:51.087Z,2.50
2023-03-20T00:06:53.735Z,2.57
2023-03-20T00:09:57.752Z,2.60
2023-03-20T00:13:01.623Z,3.10
2023-03-20T00:16:05.710Z,2.93
2023-03-20T00:19:16.396Z,3.30
2023-03-20T00:22:18.863Z,2.63
2023-03-20T00:25:23.713Z,3.20
2023-03-20T00:28:39.162Z,3.20
2023-03-20T00:31:41.845Z,3.10
2023-03-20T00:34:45.874Z,2.35
2023-03-20T00:37:48.388Z,3.70
2023-03-20T00:40:50.906Z,3.43
2023-03-20T00:43:56.921Z,3.60
2023-03-20T00:47:01.217Z,3.00
2023-03-20T00:50:09.216Z,2.70
2023-03-20T00:53:12.444Z,2.20
2023-03-20T00:56:33.622Z,1.67
2023-03-20T00:59:38.010Z,2.20
2023-03-20T01:02:40.690Z,2.50
2023-03-20T01:05:44.720Z,3.10
2023-03-20T01:08:48.709Z,3.47
2023-03-20T01:11:53.642Z,1.63
2023-03-20T01:14:58.247Z,1.47
2023-03-20T01:18:00.978Z,1.57
2023-03-20T01:21:05.133Z,2.08
2023-03-20T01:24:08.225Z,2.17
2023-03-20T01:27:14.085Z,2.22
2023-03-20T01:30:19.862Z,2.50
2023-03-20T01:33:23.970Z,4.07
2023-03-20T01:36:28.013Z,3.60
2023-03-20T01:39:33.893Z,1.93
2023-03-20T01:42:36.503Z,2.20
2023-03-20T01:45:39.579Z,2.70
2023-03-20T01:48:59.366Z,2.80
2023-03-20T01:52:03.661Z,2.00
2023-03-20T01:55:06.514Z,1.30
2023-03-20T01:58:12.007Z,1.13
2023-03-20T02:01:15.919Z,1.20
2023-03-20T02:04:19.281Z,1.37
2023-03-20T02:07:24.497Z,1.40
2023-03-20T02:10:27.072Z,1.50
2023-03-20T02:13:31.373Z,0.97
2023-03-20T02:16:33.895Z,1.23
2023-03-20T02:19:47.013Z,1.70
2023-03-20T02:23:37.427Z,1.48
2023-03-20T02:26:58.129Z,1.73
2023-03-20T02:30:19.350Z,1.70
2023-03-20T02:33:41.941Z,1.17
2023-03-20T02:36:59.696Z,1.20
2023-03-20T02:40:11.125Z,1.30
2023-03-20T02:43:18.747Z,1.20
2023-03-20T02:46:27.138Z,1.20
2023-03-20T02:49:44.937Z,0.73
2023-03-20T02:52:50.128Z,0.90
2023-03-20T02:55:57.852Z,0.70
2023-03-20T02:59:04.568Z,0.80
2023-03-20T03:02:09.686Z,0.60
2023-03-20T03:05:15.174Z,0.60
2023-03-20T03:08:19.620Z,0.73
2023-03-20T03:11:24.335Z,0.40
2023-03-20T03:14:33.620Z,0.40
2023-03-20T03:17:36.477Z,0.50
2023-03-20T03:20:40.161Z,0.50
2023-03-20T03:23:44.768Z,0.40
2023-03-20T03:26:48.701Z,0.50
2023-03-20T03:29:55.645Z,0.40
2023-03-20T03:33:10.930Z,0.70
2023-03-20T03:36:19.566Z,0.70
2023-03-20T03:39:26.511Z,0.60
2023-03-20T03:42:33.584Z,0.60
2023-03-20T03:45:38.663Z,1.03
2023-03-20T03:48:45.314Z,0.50
2023-03-20T03:51:50.636Z,0.60
2023-03-20T03:54:55.951Z,0.40
2023-03-20T03:58:03.068Z,0.50
2023-03-20T04:01:06.395Z,0.67
2023-03-20T04:04:09.719Z,0.45
2023-03-20T04:07:12.725Z,0.40
2023-03-20T04:10:16.489Z,0.50
2023-03-20T04:13:20.375Z,0.40
2023-03-20T04:16:24.986Z,0.40
2023-03-20T04:19:27.618Z,0.40
2023-03-20T04:22:31.220Z,0.40
2023-03-20T04:28:37.656Z,0.60
2023-03-20T04:31:40.201Z,0.30
2023-03-20T04:34:42.693Z,0.40
2023-03-20T04:37:45.337Z,0.50
2023-03-20T04:40:48.289Z,0.30
2023-03-20T04:43:52.134Z,0.50
2023-03-20T04:46:54.651Z,0.40
2023-03-20T04:49:57.204Z,0.50
2023-03-20T04:52:59.740Z,0.50
2023-03-20T04:56:02.366Z,0.70
2023-03-20T04:59:06.260Z,0.43
2023-03-20T05:02:08.832Z,0.60
2023-03-20T05:05:11.650Z,0.70
2023-03-20T05:08:14.144Z,0.55
2023-03-20T05:11:16.645Z,0.50
2023-03-20T05:14:20.897Z,1.10
2023-03-20T05:17:23.912Z,1.20
2023-03-20T05:20:27.106Z,0.80
2023-03-20T05:23:29.604Z,0.95
2023-03-20T05:26:32.221Z,1.10
2023-03-20T05:29:36.358Z,1.43
2023-03-20T05:32:38.928Z,1.13
2023-03-20T05:35:41.725Z,1.43
2023-03-20T05:38:44.236Z,0.70
2023-03-20T05:41:47.112Z,1.13
2023-03-20T05:44:51.128Z,0.60
2023-03-20T05:47:53.673Z,0.60
2023-03-20T05:50:56.274Z,0.50
2023-03-20T05:53:58.831Z,0.60
2023-03-20T05:57:01.712Z,0.70
2023-03-20T06:00:06.966Z,0.50
2023-03-20T06:03:09.509Z,0.60
2023-03-20T06:06:12.328Z,0.47
2023-03-20T06:09:15.247Z,0.77
2023-03-20T06:12:17.860Z,0.80
2023-03-20T06:15:21.999Z,1.23
2023-03-20T06:18:24.722Z,0.90
2023-03-20T06:21:27.414Z,0.88
2023-03-20T06:24:29.996Z,0.80
2023-03-20T06:27:32.789Z,0.97
2023-03-20T06:30:36.777Z,1.27
2023-03-20T06:33:40.221Z,1.00
2023-03-20T06:36:45.175Z,1.05
2023-03-20T06:39:48.082Z,0.90
2023-03-20T06:42:50.689Z,0.67
2023-03-20T06:45:54.870Z,0.80
2023-03-20T06:48:57.405Z,0.70
2023-03-20T06:52:00.313Z,0.70
2023-03-20T06:55:03.002Z,0.90
2023-03-20T06:58:05.642Z,1.08
2023-03-20T07:01:13.740Z,0.70
2023-03-20T07:04:17.317Z,0.80
2023-03-20T07:10:23.308Z,0.53
2023-03-20T07:16:30.326Z,0.73
2023-03-20T07:19:32.853Z,0.63
2023-03-20T07:22:35.355Z,0.50
2023-03-20T07:25:42.952Z,0.60
2023-03-20T07:28:45.761Z,0.90
2023-03-20T07:31:49.792Z,0.80
2023-03-20T07:34:52.279Z,0.87
2023-03-20T07:37:56.426Z,0.70
2023-03-20T07:41:00.339Z,0.70
2023-03-20T07:44:02.928Z,0.88
2023-03-20T07:47:07.145Z,1.00
2023-03-20T07:50:10.568Z,0.63
2023-03-20T07:53:13.058Z,1.00
2023-03-20T07:56:15.559Z,0.77
2023-03-20T07:59:18.515Z,0.70
2023-03-20T08:02:22.419Z,1.10
2023-03-20T08:05:25.293Z,0.83
2023-03-20T08:08:28.026Z,0.90
2023-03-20T08:11:32.557Z,0.70
2023-03-20T08:14:38.572Z,0.90
2023-03-20T08:17:45.129Z,1.37
2023-03-20T08:20:47.806Z,0.60
2023-03-20T08:23:50.315Z,0.80
2023-03-20T08:26:52.846Z,0.80
2023-03-20T08:29:55.502Z,1.00
2023-03-20T08:32:59.537Z,1.00
2023-03-20T08:36:02.108Z,0.80
2023-03-20T08:39:04.828Z,1.10
2023-03-20T08:42:07.796Z,0.90
2023-03-20T08:45:11.243Z,0.90
2023-03-20T08:48:15.468Z,0.80
2023-03-20T08:51:18.088Z,0.90
2023-03-20T08:54:20.584Z,0.75
2023-03-20T08:57:23.096Z,0.70
2023-03-20T09:00:26.039Z,0.97
2023-03-20T09:03:29.996Z,0.60
2023-03-20T09:06:32.949Z,0.80
2023-03-20T09:09:36.050Z,0.73
2023-03-20T09:12:39.024Z,0.60
2023-03-20T09:15:41.828Z,0.50
2023-03-20T09:18:45.738Z,0.63
2023-03-20T09:21:48.837Z,0.60
2023-03-20T09:24:51.431Z,0.80
2023-03-20T09:27:55.206Z,0.93
2023-03-20T09:30:58.107Z,1.00
2023-03-20T09:34:02.025Z,0.88
2023-03-20T09:37:04.655Z,0.97
2023-03-20T09:40:08.638Z,0.70
2023-03-20T09:43:16.442Z,0.53
2023-03-20T09:46:38.583Z,0.50
2023-03-20T09:49:47.279Z,0.70
2023-03-20T09:52:55.816Z,0.90
2023-03-20T09:55:59.008Z,0.77
2023-03-20T09:59:03.301Z,0.80
2023-03-20T10:02:07.916Z,0.80
2023-03-20T10:05:20.308Z,1.17
2023-03-20T10:08:27.813Z,0.80
2023-03-20T10:11:43.551Z,0.90
2023-03-20T10:14:53.944Z,0.97
2023-03-20T10:18:01.883Z,1.00
2023-03-20T10:21:09.432Z,0.70
2023-03-20T10:24:19.506Z,1.10
2023-03-20T10:27:27.990Z,1.10
2023-03-20T10:30:51.393Z,1.20
2023-03-20T10:34:01.534Z,0.90
2023-03-20T10:37:17.087Z,1.10
2023-03-20T10:40:31.901Z,1.00
2023-03-20T10:43:39.074Z,0.90
2023-03-20T10:46:44.948Z,0.90
2023-03-20T10:49:51.318Z,0.50
2023-03-20T10:52:57.028Z,0.70
2023-03-20T10:56:03.295Z,0.60
2023-03-20T10:59:08.646Z,1.10
2023-03-20T11:02:12.423Z,1.07
2023-03-20T11:05:23.350Z,1.10
2023-03-20T11:08:32.665Z,1.20
2023-03-20T11:11:35.698Z,1.23
2023-03-20T11:14:40.308Z,1.30
2023-03-20T11:17:42.926Z,1.10
2023-03-20T11:20:48.749Z,1.40
2023-03-20T11:23:53.735Z,1.80
2023-03-20T11:27:06.003Z,1.80
2023-03-20T11:30:17.459Z,2.03
2023-03-20T11:33:20.056Z,2.20
2023-03-20T11:36:28.008Z,2.50
2023-03-20T11:39:33.957Z,2.20
2023-03-20T11:42:37.277Z,2.53
2023-03-20T11:45:41.962Z,1.80
2023-03-20T11:48:46.463Z,1.87
2023-03-20T11:51:49.147Z,2.20
2023-03-20T11:54:55.218Z,2.63
2023-03-20T11:57:59.097Z,2.10
2023-03-20T12:01:03.179Z,2.73
2023-03-20T12:04:08.489Z,3.03
2023-03-20T12:07:14.332Z,3.10
2023-03-20T12:10:19.396Z,3.33
2023-03-20T12:13:23.900Z,2.67
2023-03-20T12:16:27.649Z,2.40
2023-03-20T12:19:31.429Z,3.00
2023-03-20T12:22:37.240Z,3.20
2023-03-20T12:25:45.746Z,2.47
2023-03-20T12:28:51.839Z,2.87
2023-03-20T12:31:58.282Z,2.70
2023-03-20T12:35:04.432Z,2.73
2023-03-20T12:38:18.677Z,3.33
2023-03-20T12:41:26.089Z,2.97
2023-03-20T12:44:37.770Z,2.83
2023-03-20T12:47:54.908Z,2.43
2023-03-20T12:50:59.510Z,3.00
2023-03-20T12:54:10.580Z,2.73
2023-03-20T12:57:21.066Z,2.80
2023-03-20T13:00:28.954Z,3.17
2023-03-20T13:03:44.492Z,2.77
2023-03-20T13:06:52.828Z,2.63
2023-03-20T13:10:10.295Z,2.90
2023-03-20T13:13:19.911Z,4.20
2023-03-20T13:16:30.994Z,3.00
2023-03-20T13:19:38.248Z,3.07
2023-03-20T13:22:50.646Z,2.47
2023-03-20T13:26:04.656Z,2.53
2023-03-20T13:29:13.958Z,2.80
2023-03-20T13:32:23.868Z,2.77
2023-03-20T13:35:37.960Z,2.63
2023-03-20T13:38:45.233Z,2.10
2023-03-20T13:41:48.232Z,2.63
2023-03-20T13:44:52.799Z,2.38
2023-03-20T13:47:55.974Z,2.17
2023-03-20T13:51:02.576Z,2.38
2023-03-20T13:54:13.751Z,2.40
2023-03-20T13:57:27.681Z,2.27
2023-03-20T14:00:36.914Z,2.80
2023-03-20T14:03:41.524Z,2.57
2023-03-20T14:06:53.519Z,2.30
2023-03-20T14:09:56.309Z,2.27
2023-03-20T14:13:01.795Z,2.42
2023-03-20T14:16:09.551Z,2.50
2023-03-20T14:19:19.047Z,2.70
2023-03-20T14:22:23.255Z,2.27
2023-03-20T14:25:26.522Z,2.53
2023-03-20T14:28:33.931Z,2.20
2023-03-20T14:31:38.734Z,2.40
2023-03-20T14:34:48.906Z,2.43
2023-03-20T14:38:10.322Z,2.17
2023-03-20T14:41:18.058Z,2.43
2023-03-20T14:44:29.941Z,1.90
2023-03-20T14:47:39.613Z,2.40
2023-03-20T14:50:52.478Z,2.07
2023-03-20T14:53:56.978Z,1.92
2023-03-20T14:57:10.942Z,2.20
2023-03-20T15:00:19.928Z,2.10
2023-03-20T15:03:24.615Z,1.90
2023-03-20T15:06:28.707Z,2.53
2023-03-20T15:09:32.959Z,2.70
2023-03-20T15:12:37.509Z,2.47
2023-03-20T15:15:40.114Z,1.80
2023-03-20T15:18:45.512Z,1.67
2023-03-20T15:21:49.131Z,1.83
2023-03-20T15:24:55.894Z,2.17
2023-03-20T15:27:58.549Z,2.20
2023-03-20T15:31:02.196Z,2.35
2023-03-20T15:34:09.734Z,1.80
2023-03-20T15:37:15.543Z,2.17
2023-03-20T15:40:24.189Z,1.80
2023-03-20T15:43:27.492Z,1.93
2023-03-20T15:46:30.043Z,1.77
2023-03-20T15:49:34.391Z,1.77
2023-03-20T15:52:42.007Z,1.70
2023-03-20T15:55:48.701Z,1.63
2023-03-20T15:58:53.392Z,1.70
2023-03-20T16:01:58.451Z,1.40
2023-03-20T16:05:02.481Z,1.33
2023-03-20T16:08:14.010Z,1.60
2023-03-20T16:11:19.150Z,1.17
2023-03-20T16:14:23.984Z,1.10
2023-03-20T16:17:27.558Z,1.10
2023-03-20T16:20:34.827Z,0.87
2023-03-20T16:23:39.810Z,0.83
2023-03-20T16:26:44.883Z,0.80
2023-03-20T16:29:51.696Z,0.80
2023-03-20T16:32:59.682Z,0.67
2023-03-20T16:36:04.236Z,1.00
2023-03-20T16:39:09.213Z,0.70
2023-03-20T16:42:22.437Z,0.93
2023-03-20T16:45:28.039Z,0.80
2023-03-20T16:48:34.194Z,0.70
2023-03-20T16:51:38.051Z,1.10
2023-03-20T16:54:40.737Z,1.07
2023-03-20T16:57:44.116Z,1.30
2023-03-20T17:00:52.839Z,1.00
2023-03-20T17:03:56.880Z,1.20
2023-03-20T17:07:02.070Z,0.90
2023-03-20T17:10:18.507Z,1.10
2023-03-20T17:13:21.055Z,1.13
2023-03-20T17:16:23.761Z,1.23
2023-03-20T17:19:26.535Z,1.13
2023-03-20T17:22:30.467Z,1.13
2023-03-20T17:25:33.338Z,0.87
2023-03-20T17:28:36.969Z,1.27
2023-03-20T17:31:39.893Z,1.10
2023-03-20T17:34:42.828Z,1.30
2023-03-20T17:37:46.909Z,1.40
2023-03-20T17:40:50.025Z,1.00
2023-03-20T17:43:52.856Z,1.05
2023-03-20T17:46:58.642Z,1.45
2023-03-20T17:50:01.675Z,2.27
2023-03-20T17:53:05.625Z,1.40
2023-03-20T17:56:16.999Z,1.20
2023-03-20T17:59:19.991Z,1.10
2023-03-20T18:02:22.601Z,1.33
2023-03-20T18:05:39.511Z,1.50
2023-03-20T18:08:43.505Z,1.10
2023-03-20T18:11:48.019Z,1.10
2023-03-20T18:14:50.555Z,1.50
2023-03-20T18:17:53.323Z,1.20
2023-03-20T18:20:57.315Z,1.42
2023-03-20T18:24:01.251Z,1.17
2023-03-20T18:27:06.493Z,1.50
2023-03-20T18:30:16.944Z,2.07
2023-03-20T18:33:27.097Z,2.03
2023-03-20T18:36:29.570Z,1.43
2023-03-20T18:39:33.666Z,2.37
2023-03-20T18:42:36.159Z,2.07
2023-03-20T18:45:39.852Z,1.83
2023-03-20T18:48:42.526Z,1.80
2023-03-20T18:51:45.711Z,1.92
2023-03-20T18:54:50.913Z,1.95
2023-03-20T18:57:53.872Z,2.43
2023-03-20T19:00:59.514Z,2.25
2023-03-20T19:04:02.279Z,2.10
2023-03-20T19:07:04.967Z,2.30
2023-03-20T19:10:28.654Z,2.00
2023-03-20T19:13:31.238Z,1.73
2023-03-20T19:16:36.003Z,1.53
2023-03-20T19:19:38.884Z,1.90
2023-03-20T19:22:41.664Z,2.50
2023-03-20T19:25:47.365Z,2.10
2023-03-20T19:28:49.877Z,1.70
2023-03-20T19:31:52.391Z,2.17
2023-03-20T19:35:40.808Z,1.93
2023-03-20T19:38:18.895Z,2.20
2023-03-20T19:41:22.925Z,2.40
2023-03-20T19:44:25.477Z,3.10
2023-03-20T19:47:28.089Z,2.30
2023-03-20T19:50:33.987Z,2.55
2023-03-20T19:53:36.595Z,1.60
2023-03-20T19:56:40.569Z,1.63
2023-03-20T19:59:44.053Z,1.67
2023-03-20T20:05:50.552Z,2.13
2023-03-20T20:08:53.122Z,2.22
2023-03-20T20:11:58.032Z,1.90
2023-03-20T20:15:02.512Z,1.73
2023-03-20T20:18:05.374Z,1.60
2023-03-20T20:24:30.379Z,1.70
2023-03-20T20:27:34.580Z,2.13
2023-03-20T20:30:37.638Z,2.20
2023-03-20T20:33:41.593Z,2.90
2023-03-20T20:40:08.495Z,2.53
2023-03-20T20:46:24.768Z,2.50
2023-03-20T20:49:27.551Z,1.60
2023-03-20T20:52:30.302Z,3.35
2023-03-20T20:55:32.771Z,1.73
2023-03-20T20:58:36.585Z,1.63
2023-03-20T21:01:39.163Z,1.60
2023-03-20T21:04:42.958Z,1.80
2023-03-20T21:07:47.594Z,1.67
2023-03-20T21:10:50.790Z,1.80
2023-03-20T21:13:54.851Z,1.98
2023-03-20T21:17:00.869Z,1.93
2023-03-20T21:20:03.986Z,1.77
2023-03-20T21:23:06.586Z,1.80
2023-03-20T21:26:09.987Z,3.23
2023-03-20T21:29:13.942Z,2.10
2023-03-20T21:32:19.011Z,3.30
2023-03-20T21:35:21.558Z,3.20
2023-03-20T21:41:46.730Z,3.07
2023-03-20T21:48:45.801Z,2.72
2023-03-20T21:52:37.353Z,1.80
2023-03-20T22:02:07.785Z,1.40
2023-03-20T22:05:48.374Z,1.70
2023-03-20T22:09:40.703Z,1.77
2023-03-20T22:12:56.285Z,1.60
2023-03-20T22:26:17.105Z,1.42
2023-03-20T22:46:03.659Z,1.33
2023-03-20T22:49:08.442Z,1.40
2023-03-20T22:52:26.690Z,1.50
2023-03-20T22:55:34.550Z,1.42
2023-03-20T22:58:37.243Z,1.70
2023-03-20T23:01:40.218Z,1.45
2023-03-20T23:04:42.971Z,1.13
2023-03-20T23:07:46.907Z,1.27
2023-03-20T23:10:51.217Z,1.53
2023-03-20T23:13:54.200Z,1.37
2023-03-20T23:16:56.928Z,1.60
2023-03-20T23:20:10.741Z,1.83
2023-03-20T23:23:16.408Z,1.73
2023-03-20T23:26:20.947Z,1.50
2023-03-20T23:29:23.497Z,1.70
2023-03-20T23:32:26.174Z,1.53
2023-03-20T23:35:28.785Z,1.60
2023-03-20T23:38:33.658Z,1.80
2023-03-20T23:42:06.222Z,1.60
2023-03-20T23:45:07.066Z,2.07
2023-03-20T23:48:16.136Z,2.10
2023-03-20T23:51:18.681Z,2.20
2023-03-20T23:54:22.641Z,2.30
2023-03-20T23:57:25.358Z,2.20
